Estación de San Javier

Ultimos registro cada 15 minutos 57
Estación Fecha / Hora Temperatura Humedad Lluvia Velocidad Dirección Radiación Presion
57 San Javier 04-05-2026 14:15 16,6 82 0 0 5 251 1016,6
56 San Javier 04-05-2026 14:00 16,4 83 0 0 101 227 1016,8
55 San Javier 04-05-2026 13:45 16,2 83 0 0,4 28 229 1017,2
54 San Javier 04-05-2026 13:30 16 82 0 1,3 123 251 1017,3
53 San Javier 04-05-2026 13:00 15,7 82 0 0 111 192 1017,5
52 San Javier 04-05-2026 12:45 15,4 82 0 0 111 207 1017,4
51 San Javier 04-05-2026 12:30 15,1 84 0 0 36 206 1017,7
50 San Javier 04-05-2026 12:15 14,7 85 0 0 36 153 1017,9
49 San Javier 04-05-2026 12:00 14,4 85 0 0 306 127 1017,9
48 San Javier 04-05-2026 11:45 14,2 87 0 0 306 139 1017,8
47 San Javier 04-05-2026 11:30 13,9 88 0 0 313 174 1018
46 San Javier 04-05-2026 11:15 13,6 90 0 0 355 132 1017,8
45 San Javier 04-05-2026 11:00 13,3 92 0 0,4 340 84 1017,9
44 San Javier 04-05-2026 10:45 13,1 93 0 0,4 313 67 1018
43 San Javier 04-05-2026 10:30 12,9 93 0 0,4 325 62 1017,8
42 San Javier 04-05-2026 10:15 12,6 94 0 0 265 54 1017,7
41 San Javier 04-05-2026 10:00 12,3 93 0 0 265 49 1017,6
40 San Javier 04-05-2026 09:45 12,2 94 0 0 265 70 1017,2
39 San Javier 04-05-2026 09:30 12,1 95 0 0 265 49 1017,4
38 San Javier 04-05-2026 09:15 12,2 96 0 0 251 83 1017,4
37 San Javier 04-05-2026 09:00 12,1 96 0 0 306 97 1017,4
36 San Javier 04-05-2026 08:45 11,5 96 0 0 306 91 1017,7
35 San Javier 04-05-2026 08:30 10,8 96 0 0 306 74 1017,6
34 San Javier 04-05-2026 08:15 10,3 95 0 0 306 40 1017,3
33 San Javier 04-05-2026 08:00 10 95 0 0 306 26 1017
32 San Javier 04-05-2026 07:45 9,7 95 0 0 306 16 1016,9
31 San Javier 04-05-2026 07:30 9,4 94 0 0 306 0 1017,1
30 San Javier 04-05-2026 07:15 9,3 94 0 0 306 0 1016,9
29 San Javier 04-05-2026 07:00 9,5 94 0 0 306 0 1016,7
28 San Javier 04-05-2026 06:45 9,8 94 0 0 306 0 1016,8
27 San Javier 04-05-2026 06:30 9,9 94 0 0 306 0 1016,9
26 San Javier 04-05-2026 06:15 10,1 94 0 0 306 0 1016,9
25 San Javier 04-05-2026 06:00 10,4 93 0 0 306 0 1016,7
24 San Javier 04-05-2026 05:45 10,7 94 0 0 306 0 1016,6
23 San Javier 04-05-2026 05:30 10,8 94 0 0 306 0 1016,4
22 San Javier 04-05-2026 05:15 10,8 94 0 0 306 0 1016,3
21 San Javier 04-05-2026 05:00 10,7 94 0 0 306 0 1016,3
20 San Javier 04-05-2026 04:45 10,9 93 0 0 306 0 1016,4
19 San Javier 04-05-2026 04:30 11,2 94 0 0 306 0 1016,3
18 San Javier 04-05-2026 04:15 11,3 94 0 0 306 0 1016,3
17 San Javier 04-05-2026 04:00 11,3 94 0 0 306 0 1016,6
16 San Javier 04-05-2026 03:45 11,3 94 0 0 306 0 1016,6
15 San Javier 04-05-2026 03:30 11,4 94 0 0 306 0 1016,7
14 San Javier 04-05-2026 03:15 11,6 94 0 0 306 0 1016,9
13 San Javier 04-05-2026 03:00 11,7 94 0 0 306 0 1016,9
12 San Javier 04-05-2026 02:45 11,7 94 0 0 304 0 1017
11 San Javier 04-05-2026 02:30 11,7 94 0 0,4 307 0 1017,2
10 San Javier 04-05-2026 02:15 11,7 94 0 0 309 0 1017,3
9 San Javier 04-05-2026 02:00 11,7 93 0 0 29 0 1017,7
8 San Javier 04-05-2026 01:45 11,8 93 0 0 29 0 1017,9
7 San Javier 04-05-2026 01:30 11,9 94 0 0 29 0 1017,9
6 San Javier 04-05-2026 01:15 11,8 93 0 0 29 0 1018,2
5 San Javier 04-05-2026 01:00 11,9 93 0 0 29 0 1018,1
4 San Javier 04-05-2026 00:45 12 92 0 0 29 0 1018,1
3 San Javier 04-05-2026 00:30 12,2 92 0 0 29 0 1017,7
2 San Javier 04-05-2026 00:15 12,4 92 0 0 29 0 1017,7
1 San Javier 04-05-2026 00:00 12,6 93 0 0 29 0 1018,4